createdAt,value
2022-12-08T00:00:17.971Z,2.5
2022-12-08T00:01:17.758Z,2.5
2022-12-08T00:02:18.173Z,2.5
2022-12-08T00:03:17.906Z,2.5
2022-12-08T00:04:18.050Z,2.5
2022-12-08T00:05:17.811Z,2.5
2022-12-08T00:06:18.037Z,2.4
2022-12-08T00:07:17.781Z,2.4
2022-12-08T00:08:18.132Z,2.4
2022-12-08T00:09:17.778Z,2.4
2022-12-08T00:10:47.021Z,2.4
2022-12-08T00:11:17.764Z,2.4
2022-12-08T00:12:17.760Z,2.4
2022-12-08T00:13:17.765Z,2.5
2022-12-08T00:14:17.776Z,2.5
2022-12-08T00:15:17.781Z,2.5
2022-12-08T00:16:17.819Z,2.5
2022-12-08T00:17:17.757Z,2.5
2022-12-08T00:18:17.767Z,2.5
2022-12-08T00:19:17.766Z,2.5
2022-12-08T00:20:17.778Z,2.5
2022-12-08T00:21:17.761Z,2.5
2022-12-08T00:22:17.763Z,2.5
2022-12-08T00:23:17.767Z,2.5
2022-12-08T00:24:17.780Z,2.5
2022-12-08T00:25:17.763Z,2.6
2022-12-08T00:26:17.761Z,2.5
2022-12-08T00:27:17.763Z,2.6
2022-12-08T00:28:17.759Z,2.6
2022-12-08T00:29:17.950Z,2.6
2022-12-08T00:30:17.774Z,2.6
2022-12-08T00:31:17.805Z,2.6
2022-12-08T00:32:17.788Z,2.6
2022-12-08T00:33:17.758Z,2.7
2022-12-08T00:34:17.780Z,2.7
2022-12-08T00:35:17.759Z,2.7
2022-12-08T00:36:17.774Z,2.7
2022-12-08T00:37:17.761Z,2.7
2022-12-08T00:38:17.850Z,2.8
2022-12-08T00:39:18.151Z,2.8
2022-12-08T00:40:17.763Z,2.8
2022-12-08T00:41:17.762Z,2.8
2022-12-08T00:42:17.759Z,2.8
2022-12-08T00:43:17.757Z,2.8
2022-12-08T00:44:17.760Z,2.8
2022-12-08T00:45:17.762Z,2.8
2022-12-08T00:46:17.831Z,2.8
2022-12-08T00:47:22.213Z,2.8
2022-12-08T00:48:17.758Z,2.8
2022-12-08T00:49:17.758Z,2.8
2022-12-08T00:50:17.760Z,2.8
2022-12-08T00:51:17.767Z,2.8
2022-12-08T00:52:17.762Z,2.8
2022-12-08T00:53:17.764Z,2.8
2022-12-08T00:54:17.762Z,2.8
2022-12-08T00:55:17.763Z,2.8
2022-12-08T00:56:17.762Z,2.9
2022-12-08T00:57:17.758Z,2.9
2022-12-08T00:58:17.768Z,2.9
2022-12-08T00:59:17.829Z,2.9
2022-12-08T01:00:17.840Z,2.9
2022-12-08T01:01:17.845Z,2.9
2022-12-08T01:02:17.762Z,2.9
2022-12-08T01:03:17.856Z,2.9
2022-12-08T01:04:17.769Z,2.9
2022-12-08T01:05:17.866Z,3
2022-12-08T01:06:17.758Z,3
2022-12-08T01:07:17.758Z,3
2022-12-08T01:08:17.789Z,3
2022-12-08T01:09:17.762Z,3
2022-12-08T01:10:17.756Z,3
2022-12-08T01:11:17.761Z,3
2022-12-08T01:12:17.764Z,3
2022-12-08T01:13:17.762Z,3
2022-12-08T01:14:17.763Z,3
2022-12-08T01:15:17.763Z,3
2022-12-08T01:16:17.811Z,3
2022-12-08T01:17:17.764Z,3
2022-12-08T01:18:17.759Z,3.1
2022-12-08T01:19:17.760Z,3.1
2022-12-08T01:20:17.762Z,3.1
2022-12-08T01:21:17.770Z,3.1
2022-12-08T01:22:17.758Z,3.1
2022-12-08T01:23:17.764Z,3.1
2022-12-08T01:24:17.759Z,3.1
2022-12-08T01:25:17.762Z,3.1
2022-12-08T01:26:17.761Z,3.1
2022-12-08T01:27:17.762Z,3.1
2022-12-08T01:28:17.762Z,3.1
2022-12-08T01:29:17.765Z,3.1
2022-12-08T01:30:17.758Z,3.1
2022-12-08T01:31:17.810Z,3.1
2022-12-08T01:32:17.764Z,3.1
2022-12-08T01:33:17.854Z,3.1
2022-12-08T01:34:17.764Z,3.1
2022-12-08T01:35:17.762Z,3.1
2022-12-08T01:36:17.759Z,3.1
2022-12-08T01:37:17.758Z,3.1
2022-12-08T01:38:17.757Z,3.1
2022-12-08T01:39:17.762Z,3.1
2022-12-08T01:40:17.757Z,3.1
2022-12-08T01:41:17.761Z,3.1
2022-12-08T01:42:17.758Z,3.1
2022-12-08T01:43:17.757Z,3.1
2022-12-08T01:44:17.765Z,3.1
2022-12-08T01:45:17.764Z,3.2
2022-12-08T01:46:17.772Z,3.2
2022-12-08T01:47:17.767Z,3.2
2022-12-08T01:48:17.813Z,3.2
2022-12-08T01:49:17.762Z,3.2
2022-12-08T01:50:17.758Z,3.2
2022-12-08T01:51:17.763Z,3.2
2022-12-08T01:52:17.757Z,3.2
2022-12-08T01:53:17.757Z,3.2
2022-12-08T01:54:18.045Z,3.2
2022-12-08T01:55:18.288Z,3.2
2022-12-08T01:56:18.526Z,3.2
2022-12-08T01:57:19.063Z,3.2
2022-12-08T01:58:17.780Z,3.2
2022-12-08T01:59:18.036Z,3.2
2022-12-08T02:00:17.784Z,3.2
2022-12-08T02:01:17.971Z,3.2
2022-12-08T02:02:17.801Z,3.2
2022-12-08T02:03:17.762Z,3.2
2022-12-08T02:04:17.764Z,3.2
2022-12-08T02:05:17.776Z,3.2
2022-12-08T02:06:17.756Z,3.2
2022-12-08T02:07:17.767Z,3.2
2022-12-08T02:08:17.801Z,3.2
2022-12-08T02:09:17.763Z,3.2
2022-12-08T02:10:17.768Z,3.2
2022-12-08T02:11:17.771Z,3.2
2022-12-08T02:12:17.765Z,3.2
2022-12-08T02:13:17.772Z,3.2
2022-12-08T02:14:17.854Z,3.2
2022-12-08T02:15:17.787Z,3.2
2022-12-08T02:16:17.823Z,3.2
2022-12-08T02:17:17.763Z,3.2
2022-12-08T02:18:17.758Z,3.2
2022-12-08T02:19:31.352Z,3.2
2022-12-08T02:20:17.778Z,3.2
2022-12-08T02:21:17.764Z,3.2
2022-12-08T02:22:17.763Z,3.2
2022-12-08T02:23:17.760Z,3.2
2022-12-08T02:24:17.764Z,3.2
2022-12-08T02:25:17.782Z,3.2
2022-12-08T02:26:17.759Z,3.2
2022-12-08T02:27:17.764Z,3.2
2022-12-08T02:28:17.768Z,3.2
2022-12-08T02:29:17.762Z,3.2
2022-12-08T02:30:17.778Z,3.2
2022-12-08T02:31:17.812Z,3.2
2022-12-08T02:32:17.763Z,3.2
2022-12-08T02:33:17.758Z,3.3
2022-12-08T02:34:17.766Z,3.2
2022-12-08T02:35:17.781Z,3.2
2022-12-08T02:36:17.763Z,3.3
2022-12-08T02:37:17.763Z,3.3
2022-12-08T02:38:17.768Z,3.3
2022-12-08T02:39:17.763Z,3.3
2022-12-08T02:40:17.776Z,3.3
2022-12-08T02:41:17.765Z,3.3
2022-12-08T02:42:17.761Z,3.3
2022-12-08T02:43:17.942Z,3.3
2022-12-08T02:44:17.771Z,3.3
2022-12-08T02:45:17.778Z,3.3
2022-12-08T02:46:17.843Z,3.3
2022-12-08T02:47:17.772Z,3.3
2022-12-08T02:48:17.772Z,3.3
2022-12-08T02:49:17.769Z,3.3
2022-12-08T02:50:17.796Z,3.3
2022-12-08T02:51:17.769Z,3.3
2022-12-08T02:52:17.778Z,3.3
2022-12-08T02:53:17.765Z,3.3
2022-12-08T02:54:17.771Z,3.3
2022-12-08T02:55:17.791Z,3.3
2022-12-08T02:56:17.770Z,3.3
2022-12-08T02:57:17.760Z,3.3
2022-12-08T02:58:17.757Z,3.3
2022-12-08T02:59:17.759Z,3.3
2022-12-08T03:00:17.773Z,3.3
2022-12-08T03:01:17.816Z,3.3
2022-12-08T03:02:17.797Z,3.3
2022-12-08T03:03:17.756Z,3.3
2022-12-08T03:04:17.760Z,3.3
2022-12-08T03:05:17.763Z,3.3
2022-12-08T03:06:17.777Z,3.3
2022-12-08T03:07:17.762Z,3.3
2022-12-08T03:08:17.820Z,3.3
2022-12-08T03:09:17.763Z,3.3
2022-12-08T03:10:17.760Z,3.3
2022-12-08T03:11:17.975Z,3.3
2022-12-08T03:12:17.798Z,3.3
2022-12-08T03:13:17.755Z,3.3
2022-12-08T03:14:17.920Z,3.3
2022-12-08T03:15:17.756Z,3.3
2022-12-08T03:16:17.824Z,3.3
2022-12-08T03:17:17.762Z,3.3
2022-12-08T03:18:17.767Z,3.3
2022-12-08T03:19:17.759Z,3.3
2022-12-08T03:20:17.763Z,3.3
2022-12-08T03:21:17.782Z,3.3
2022-12-08T03:22:17.761Z,3.3
2022-12-08T03:23:17.764Z,3.2
2022-12-08T03:24:17.864Z,3.2
2022-12-08T03:25:17.762Z,3.2
2022-12-08T03:26:17.777Z,3.2
2022-12-08T03:27:17.921Z,3.2
2022-12-08T03:28:17.767Z,3.2
2022-12-08T03:29:17.983Z,3.2
2022-12-08T03:30:17.822Z,3.2
2022-12-08T03:31:18.088Z,3.2
2022-12-08T03:32:17.763Z,3.2
2022-12-08T03:33:17.762Z,3.2
2022-12-08T03:34:18.005Z,3.2
2022-12-08T03:35:17.786Z,3.2
2022-12-08T03:36:18.018Z,3.2
2022-12-08T03:37:17.803Z,3.2
2022-12-08T03:38:18.217Z,3.2
2022-12-08T03:39:17.853Z,3.2
2022-12-08T03:40:18.052Z,3.2
2022-12-08T03:41:17.793Z,3.2
2022-12-08T03:42:18.015Z,3.2
2022-12-08T03:43:17.762Z,3.2
2022-12-08T03:44:18.039Z,3.2
2022-12-08T03:45:17.947Z,3.2
2022-12-08T03:46:17.805Z,3.2
2022-12-08T03:47:17.759Z,3.2
2022-12-08T03:48:17.758Z,3.2
2022-12-08T03:49:17.763Z,3.2
2022-12-08T03:50:17.770Z,3.2
2022-12-08T03:51:17.760Z,3.2
2022-12-08T03:52:17.758Z,3.2
2022-12-08T03:53:17.765Z,3.2
2022-12-08T03:54:17.759Z,3.2
2022-12-08T03:55:17.763Z,3.2
2022-12-08T03:56:17.758Z,3.2
2022-12-08T03:57:17.762Z,3.2
2022-12-08T03:58:17.767Z,3.2
2022-12-08T03:59:17.763Z,3.2
2022-12-08T04:00:17.768Z,3.2
2022-12-08T04:01:17.765Z,3.2
2022-12-08T04:02:17.899Z,3.2
2022-12-08T04:03:17.798Z,3.2
2022-12-08T04:04:17.768Z,3.2
2022-12-08T04:05:17.764Z,3.2
2022-12-08T04:06:17.764Z,3.2
2022-12-08T04:07:17.760Z,3.2
2022-12-08T04:08:17.835Z,3.2
2022-12-08T04:09:17.762Z,3.2
2022-12-08T04:10:17.758Z,3.2
2022-12-08T04:11:17.761Z,3.2
2022-12-08T04:12:17.758Z,3.2
2022-12-08T04:13:17.766Z,3.2
2022-12-08T04:14:17.939Z,3.2
2022-12-08T04:15:17.763Z,3.2
2022-12-08T04:16:17.849Z,3.2
2022-12-08T04:17:17.764Z,3.2
2022-12-08T04:18:17.765Z,3.2
2022-12-08T04:19:17.930Z,3.2
2022-12-08T04:20:17.765Z,3.2
2022-12-08T04:21:17.760Z,3.2
2022-12-08T04:22:17.757Z,3.2
2022-12-08T04:23:17.757Z,3.2
2022-12-08T04:24:17.760Z,3.2
2022-12-08T04:25:17.761Z,3.2
2022-12-08T04:26:17.758Z,3.2
2022-12-08T04:27:17.761Z,3.2
2022-12-08T04:28:17.759Z,3.2
2022-12-08T04:29:17.757Z,3.2
2022-12-08T04:30:17.766Z,3.2
2022-12-08T04:31:17.814Z,3.2
2022-12-08T04:32:17.771Z,3.2
2022-12-08T04:33:17.942Z,3.2
2022-12-08T04:34:17.765Z,3.2
2022-12-08T04:35:17.778Z,3.2
2022-12-08T04:36:17.757Z,3.2
2022-12-08T04:37:17.760Z,3.2
2022-12-08T04:38:17.763Z,3.2
2022-12-08T04:39:17.759Z,3.2
2022-12-08T04:40:17.765Z,3.2
2022-12-08T04:41:17.764Z,3.2
2022-12-08T04:42:17.761Z,3.2
2022-12-08T04:43:17.764Z,3.2
2022-12-08T04:44:17.767Z,3.2
2022-12-08T04:45:17.768Z,3.2
2022-12-08T04:46:17.810Z,3.2
2022-12-08T04:47:17.797Z,3.2
2022-12-08T04:48:17.762Z,3.2
2022-12-08T04:49:17.760Z,3.2
2022-12-08T04:50:17.760Z,3.2
2022-12-08T04:51:17.765Z,3.2
2022-12-08T04:52:17.759Z,3.2
2022-12-08T04:53:17.766Z,3.2
2022-12-08T04:54:17.758Z,3.2
2022-12-08T04:55:17.764Z,3.2
2022-12-08T04:56:17.767Z,3.2
2022-12-08T04:57:17.760Z,3.2
2022-12-08T04:58:17.766Z,3.2
2022-12-08T04:59:17.766Z,3.2
2022-12-08T05:00:17.762Z,3.2
2022-12-08T05:01:18.012Z,3.2
2022-12-08T05:02:17.877Z,3.2
2022-12-08T05:03:17.761Z,3.2
2022-12-08T05:04:17.761Z,3.2
2022-12-08T05:05:17.772Z,3.2
2022-12-08T05:06:17.765Z,3.2
2022-12-08T05:07:17.763Z,3.2
2022-12-08T05:08:17.808Z,3.2
2022-12-08T05:09:17.766Z,3.2
2022-12-08T05:10:17.765Z,3.2
2022-12-08T05:11:17.761Z,3.2
2022-12-08T05:12:17.763Z,3.2
2022-12-08T05:13:17.763Z,3.2
2022-12-08T05:14:17.791Z,3.2
2022-12-08T05:15:17.766Z,3.2
2022-12-08T05:16:17.877Z,3.2
2022-12-08T05:17:17.831Z,3.2
2022-12-08T05:18:18.028Z,3.2
2022-12-08T05:19:17.994Z,3.2
2022-12-08T05:20:17.869Z,3.2
2022-12-08T05:21:17.763Z,3.2
2022-12-08T05:22:18.017Z,3.2
2022-12-08T05:23:17.883Z,3.2
2022-12-08T05:24:18.102Z,3.2
2022-12-08T05:25:18.033Z,3.2
2022-12-08T05:26:18.017Z,3.2
2022-12-08T05:27:17.908Z,3.2
2022-12-08T05:28:40.606Z,3.2
2022-12-08T05:29:17.764Z,3.2
2022-12-08T05:30:17.865Z,3.2
2022-12-08T05:31:17.811Z,3.2
2022-12-08T05:32:17.806Z,3.2
2022-12-08T05:33:17.765Z,3.2
2022-12-08T05:34:17.779Z,3.2
2022-12-08T05:35:17.765Z,3.2
2022-12-08T05:36:17.763Z,3.2
2022-12-08T05:37:17.764Z,3.2
2022-12-08T05:38:17.764Z,3.2
2022-12-08T05:39:17.764Z,3.2
2022-12-08T05:40:17.760Z,3.2
2022-12-08T05:41:17.763Z,3.2
2022-12-08T05:42:21.847Z,3.2
2022-12-08T05:43:17.765Z,3.2
2022-12-08T05:44:17.772Z,3.2
2022-12-08T05:45:17.760Z,3.2
2022-12-08T05:46:17.815Z,3.2
2022-12-08T05:47:17.763Z,3.2
2022-12-08T05:48:17.766Z,3.2
2022-12-08T05:49:17.760Z,3.2
2022-12-08T05:50:17.758Z,3.2
2022-12-08T05:51:17.764Z,3.2
2022-12-08T05:52:17.764Z,3.2
2022-12-08T05:53:17.768Z,3.2
2022-12-08T05:54:17.761Z,3.2
2022-12-08T05:55:17.761Z,3.2
2022-12-08T05:56:17.767Z,3.2
2022-12-08T05:57:17.770Z,3.2
2022-12-08T05:58:17.762Z,3.2
2022-12-08T05:59:17.765Z,3.2
2022-12-08T06:00:17.766Z,3.2
2022-12-08T06:01:17.766Z,3.2
2022-12-08T06:02:17.842Z,3.2
2022-12-08T06:03:17.803Z,3.2
2022-12-08T06:04:17.763Z,3.2
2022-12-08T06:05:17.763Z,3.2
2022-12-08T06:06:17.763Z,3.2
2022-12-08T06:07:17.759Z,3.2
2022-12-08T06:08:17.799Z,3.2
2022-12-08T06:09:17.759Z,3.2
2022-12-08T06:10:17.762Z,3.2
2022-12-08T06:11:17.772Z,3.2
2022-12-08T06:12:17.770Z,3.2
2022-12-08T06:13:17.952Z,3.2
2022-12-08T06:14:17.761Z,3.2
2022-12-08T06:15:17.763Z,3.2
2022-12-08T06:16:17.863Z,3.2
2022-12-08T06:17:17.761Z,3.2
2022-12-08T06:18:17.764Z,3.2
2022-12-08T06:19:17.765Z,3.2
2022-12-08T06:20:17.762Z,3.2
2022-12-08T06:21:17.773Z,3.2
2022-12-08T06:22:17.761Z,3.1
2022-12-08T06:23:17.759Z,3.2
2022-12-08T06:24:17.782Z,3.1
2022-12-08T06:25:17.763Z,3.1
2022-12-08T06:26:17.761Z,3.1
2022-12-08T06:27:17.861Z,3.1
2022-12-08T06:28:17.765Z,3.1
2022-12-08T06:29:17.779Z,3.1
2022-12-08T06:30:17.762Z,3.1
2022-12-08T06:31:17.874Z,3.1
2022-12-08T06:32:19.895Z,3.1
2022-12-08T06:33:17.762Z,3.1
2022-12-08T06:34:17.776Z,3.1
2022-12-08T06:35:17.767Z,3.1
2022-12-08T06:36:17.759Z,3.1
2022-12-08T06:37:17.759Z,3.1
2022-12-08T06:38:17.766Z,3.1
2022-12-08T06:39:17.766Z,3.1
2022-12-08T06:40:17.768Z,3.1
2022-12-08T06:41:17.762Z,3.1
2022-12-08T06:42:17.835Z,3.1
2022-12-08T06:43:17.758Z,3.1
2022-12-08T06:44:17.770Z,3.1
2022-12-08T06:45:17.765Z,3.1
2022-12-08T06:46:17.865Z,3.1
2022-12-08T06:47:23.320Z,3.1
2022-12-08T06:48:17.836Z,3.1
2022-12-08T06:49:18.164Z,3.1
2022-12-08T06:50:18.229Z,3.1
2022-12-08T06:51:17.763Z,3.1
2022-12-08T06:52:17.765Z,3
2022-12-08T06:53:17.781Z,3
2022-12-08T06:54:17.765Z,3
2022-12-08T06:55:42.353Z,3
2022-12-08T06:56:17.850Z,3
2022-12-08T06:57:17.759Z,3
2022-12-08T06:58:17.775Z,3
2022-12-08T06:59:17.779Z,3
2022-12-08T07:00:17.764Z,3
2022-12-08T07:01:17.849Z,3
2022-12-08T07:02:17.824Z,3
2022-12-08T07:03:17.763Z,3
2022-12-08T07:04:17.768Z,3
2022-12-08T07:05:17.771Z,3
2022-12-08T07:06:17.759Z,3
2022-12-08T07:07:17.761Z,3
2022-12-08T07:08:17.851Z,3
2022-12-08T07:09:17.781Z,3
2022-12-08T07:10:17.758Z,3
2022-12-08T07:11:21.360Z,3
2022-12-08T07:12:17.766Z,3
2022-12-08T07:13:17.759Z,2.9
2022-12-08T07:14:17.833Z,2.9
2022-12-08T07:15:18.038Z,2.9
2022-12-08T07:16:17.847Z,2.9
2022-12-08T07:17:17.797Z,2.9
2022-12-08T07:18:18.034Z,3
2022-12-08T07:19:17.941Z,2.9
2022-12-08T07:20:17.765Z,2.9
2022-12-08T07:21:17.765Z,2.9
2022-12-08T07:22:17.761Z,3
2022-12-08T07:23:17.769Z,2.9
2022-12-08T07:24:17.788Z,2.9
2022-12-08T07:25:17.760Z,3
2022-12-08T07:26:17.760Z,2.9
2022-12-08T07:27:17.761Z,3
2022-12-08T07:28:17.759Z,2.9
2022-12-08T07:29:21.694Z,3
2022-12-08T07:30:17.764Z,3
2022-12-08T07:31:17.809Z,3
2022-12-08T07:32:17.760Z,3
2022-12-08T07:33:17.759Z,3
2022-12-08T07:34:17.777Z,3
2022-12-08T07:35:17.766Z,3
2022-12-08T07:36:17.768Z,3
2022-12-08T07:37:17.762Z,3
2022-12-08T07:38:17.954Z,3
2022-12-08T07:39:17.787Z,3
2022-12-08T07:40:17.759Z,3
2022-12-08T07:41:17.764Z,3
2022-12-08T07:42:17.759Z,3
2022-12-08T07:43:17.760Z,3
2022-12-08T07:44:17.774Z,3
2022-12-08T07:45:17.758Z,3
2022-12-08T07:46:17.787Z,3
2022-12-08T07:47:17.770Z,3
2022-12-08T07:48:17.764Z,3
2022-12-08T07:49:17.928Z,3
2022-12-08T07:50:17.768Z,3
2022-12-08T07:51:18.016Z,3
2022-12-08T07:52:18.710Z,3
2022-12-08T07:53:17.773Z,3
2022-12-08T07:54:18.045Z,3
2022-12-08T07:55:17.823Z,3
2022-12-08T07:56:18.023Z,3
2022-12-08T07:57:17.860Z,3
2022-12-08T07:58:17.761Z,3
2022-12-08T07:59:17.889Z,3
2022-12-08T08:00:18.090Z,3
2022-12-08T08:01:18.143Z,3
2022-12-08T08:02:24.586Z,3
2022-12-08T08:03:17.787Z,3
2022-12-08T08:04:17.811Z,3
2022-12-08T08:05:17.764Z,3
2022-12-08T08:06:17.769Z,3
2022-12-08T08:07:17.764Z,3
2022-12-08T08:08:17.781Z,3
2022-12-08T08:09:17.772Z,3
2022-12-08T08:10:17.758Z,3
2022-12-08T08:11:21.149Z,3
2022-12-08T08:12:30.596Z,3
2022-12-08T08:13:17.776Z,3
2022-12-08T08:14:17.764Z,3
2022-12-08T08:15:17.767Z,3
2022-12-08T08:16:17.870Z,3
2022-12-08T08:17:17.859Z,3
2022-12-08T08:18:17.769Z,3
2022-12-08T08:19:17.805Z,3.1
2022-12-08T08:20:17.758Z,3
2022-12-08T08:21:36.544Z,3.1
2022-12-08T08:22:17.760Z,3.1
2022-12-08T08:23:17.761Z,3
2022-12-08T08:24:17.760Z,3.1
2022-12-08T08:25:17.787Z,3.1
2022-12-08T08:26:17.767Z,3.1
2022-12-08T08:27:17.767Z,3
2022-12-08T08:28:17.765Z,3
2022-12-08T08:29:17.773Z,3
2022-12-08T08:30:20.577Z,3
2022-12-08T08:31:17.796Z,3
2022-12-08T08:32:17.767Z,3
2022-12-08T08:33:17.761Z,3
2022-12-08T08:34:17.762Z,3
2022-12-08T08:35:17.759Z,3
2022-12-08T08:36:17.762Z,3
2022-12-08T08:37:17.840Z,3
2022-12-08T08:38:17.777Z,3
2022-12-08T08:39:17.759Z,3
2022-12-08T08:40:17.775Z,3
2022-12-08T08:41:17.764Z,3
2022-12-08T08:42:17.763Z,3
2022-12-08T08:43:17.759Z,3
2022-12-08T08:44:17.764Z,3
2022-12-08T08:45:17.765Z,3
2022-12-08T08:46:17.789Z,3
2022-12-08T08:47:17.766Z,2.9
2022-12-08T08:48:17.758Z,2.9
2022-12-08T08:49:17.765Z,3
2022-12-08T08:50:17.766Z,3
2022-12-08T08:51:17.761Z,3
2022-12-08T08:52:17.763Z,3
2022-12-08T08:53:17.766Z,2.9
2022-12-08T08:54:17.767Z,3
2022-12-08T08:55:17.766Z,2.9
2022-12-08T08:56:17.763Z,2.9
2022-12-08T08:57:22.113Z,3
2022-12-08T08:58:17.767Z,2.9
2022-12-08T08:59:17.768Z,3
2022-12-08T09:00:17.768Z,3
2022-12-08T09:01:17.831Z,3
2022-12-08T09:02:17.816Z,3
2022-12-08T09:03:17.761Z,3
2022-12-08T09:04:17.785Z,3
2022-12-08T09:05:17.761Z,3
2022-12-08T09:06:17.864Z,3
2022-12-08T09:07:17.760Z,3
2022-12-08T09:08:17.886Z,3
2022-12-08T09:09:17.766Z,3
2022-12-08T09:10:17.765Z,3
2022-12-08T09:11:17.766Z,3
2022-12-08T09:12:17.766Z,3
2022-12-08T09:13:17.765Z,3
2022-12-08T09:14:17.772Z,3
2022-12-08T09:15:17.771Z,3
2022-12-08T09:16:17.930Z,3
2022-12-08T09:17:17.781Z,3
2022-12-08T09:18:17.765Z,3
2022-12-08T09:19:17.764Z,3
2022-12-08T09:20:17.761Z,3
2022-12-08T09:21:17.760Z,3
2022-12-08T09:22:17.768Z,3
2022-12-08T09:23:17.767Z,3
2022-12-08T09:24:17.776Z,3
2022-12-08T09:25:17.761Z,3
2022-12-08T09:26:17.769Z,3
2022-12-08T09:27:17.773Z,3
2022-12-08T09:28:17.767Z,3
2022-12-08T09:29:17.905Z,3
2022-12-08T09:30:17.775Z,3
2022-12-08T09:31:17.825Z,3.1
2022-12-08T09:32:17.762Z,3.1
2022-12-08T09:33:17.791Z,3.1
2022-12-08T09:34:17.763Z,3.1
2022-12-08T09:35:17.770Z,3.1
2022-12-08T09:36:17.765Z,3.1
2022-12-08T09:37:17.759Z,3.1
2022-12-08T09:38:17.760Z,3.1
2022-12-08T09:39:17.765Z,3.1
2022-12-08T09:40:17.764Z,3.1
2022-12-08T09:41:17.764Z,3
2022-12-08T09:42:17.762Z,3.1
2022-12-08T09:43:17.776Z,3
2022-12-08T09:44:17.762Z,3
2022-12-08T09:45:17.765Z,3
2022-12-08T09:46:17.819Z,3
2022-12-08T09:47:17.766Z,3
2022-12-08T09:48:17.765Z,3
2022-12-08T09:49:17.766Z,2.9
2022-12-08T09:50:17.763Z,2.9
2022-12-08T09:51:17.765Z,2.9
2022-12-08T09:52:17.760Z,2.9
2022-12-08T09:53:17.761Z,2.9
2022-12-08T09:54:17.768Z,2.9
2022-12-08T09:55:17.771Z,2.9
2022-12-08T09:56:17.764Z,2.9
2022-12-08T09:57:17.780Z,2.9
2022-12-08T09:58:17.765Z,2.9
2022-12-08T09:59:17.761Z,2.9
2022-12-08T10:00:17.764Z,2.9
2022-12-08T10:01:17.780Z,2.9
2022-12-08T10:02:17.787Z,2.9
2022-12-08T10:03:17.767Z,2.9
2022-12-08T10:04:17.760Z,2.9
2022-12-08T10:05:17.827Z,2.9
2022-12-08T10:06:17.762Z,2.9
2022-12-08T10:07:17.766Z,2.8
2022-12-08T10:08:17.805Z,2.8
2022-12-08T10:09:22.591Z,2.8
2022-12-08T10:10:17.765Z,2.8
2022-12-08T10:11:17.768Z,2.8
2022-12-08T10:12:17.764Z,2.8
2022-12-08T10:13:17.766Z,2.9
2022-12-08T10:14:17.760Z,2.8
2022-12-08T10:15:17.761Z,2.8
2022-12-08T10:16:22.158Z,2.8
2022-12-08T10:17:17.773Z,2.8
2022-12-08T10:18:17.779Z,2.8
2022-12-08T10:19:17.760Z,2.8
2022-12-08T10:20:17.770Z,2.8
2022-12-08T10:21:17.760Z,2.8
2022-12-08T10:22:17.987Z,2.8
2022-12-08T10:23:18.267Z,2.8
2022-12-08T10:24:18.455Z,2.8
2022-12-08T10:25:18.807Z,2.8
2022-12-08T10:26:18.342Z,2.8
2022-12-08T10:27:17.768Z,2.8
2022-12-08T10:28:17.762Z,2.8
2022-12-08T10:29:17.767Z,2.8
2022-12-08T10:30:17.770Z,2.8
2022-12-08T10:31:17.840Z,2.8
2022-12-08T10:32:17.769Z,2.8
2022-12-08T10:33:17.769Z,2.8
2022-12-08T10:34:17.766Z,2.8
2022-12-08T10:35:17.780Z,2.8
2022-12-08T10:36:17.764Z,2.8
2022-12-08T10:37:17.767Z,2.8
2022-12-08T10:38:17.762Z,2.8
2022-12-08T10:39:17.769Z,2.8
2022-12-08T10:40:17.781Z,2.8
2022-12-08T10:41:17.765Z,2.8
2022-12-08T10:42:17.758Z,2.8
2022-12-08T10:43:17.758Z,2.8
2022-12-08T10:44:17.767Z,2.8
2022-12-08T10:45:17.775Z,2.8
2022-12-08T10:46:17.817Z,2.8
2022-12-08T10:47:17.766Z,2.8
2022-12-08T10:48:17.763Z,2.8
2022-12-08T10:49:17.759Z,2.8
2022-12-08T10:50:18.062Z,2.8
2022-12-08T10:51:17.766Z,2.8
2022-12-08T10:52:17.776Z,2.8
2022-12-08T10:53:17.901Z,2.8
2022-12-08T10:54:21.930Z,2.8
2022-12-08T10:55:18.012Z,2.8
2022-12-08T10:56:17.768Z,2.8
2022-12-08T10:57:17.816Z,2.8
2022-12-08T10:58:17.766Z,2.8
2022-12-08T10:59:17.758Z,2.8
2022-12-08T11:00:18.083Z,2.8
2022-12-08T11:01:17.832Z,2.8
2022-12-08T11:02:17.841Z,2.8
2022-12-08T11:03:17.766Z,2.8
2022-12-08T11:04:17.763Z,2.9
2022-12-08T11:05:17.785Z,2.9
2022-12-08T11:06:17.793Z,2.9
2022-12-08T11:07:17.777Z,2.9
2022-12-08T11:08:17.826Z,2.9
2022-12-08T11:09:17.773Z,2.9
2022-12-08T11:10:17.778Z,2.9
2022-12-08T11:11:17.766Z,2.9
2022-12-08T11:12:17.777Z,2.9
2022-12-08T11:13:17.764Z,2.9
2022-12-08T11:14:17.759Z,3
2022-12-08T11:15:17.779Z,3
2022-12-08T11:16:17.808Z,3
2022-12-08T11:17:17.883Z,3
2022-12-08T11:18:17.763Z,3
2022-12-08T11:19:17.766Z,3
2022-12-08T11:20:17.792Z,3
2022-12-08T11:21:17.777Z,3
2022-12-08T11:22:17.879Z,3
2022-12-08T11:23:17.765Z,3.1
2022-12-08T11:24:17.997Z,3.1
2022-12-08T11:25:18.243Z,3.1
2022-12-08T11:26:17.856Z,3.1
2022-12-08T11:27:17.849Z,3.1
2022-12-08T11:28:18.027Z,3.1
2022-12-08T11:29:17.787Z,3.1
2022-12-08T11:30:18.213Z,3.1
2022-12-08T11:31:18.021Z,3.1
2022-12-08T11:32:17.760Z,3.1
2022-12-08T11:33:17.980Z,3.1
2022-12-08T11:34:17.807Z,3.1
2022-12-08T11:35:18.039Z,3.1
2022-12-08T11:36:18.316Z,3.1
2022-12-08T11:37:18.252Z,3.1
2022-12-08T11:38:20.881Z,3.1
2022-12-08T11:39:17.766Z,3.2
2022-12-08T11:40:17.765Z,3.1
2022-12-08T11:41:17.778Z,3.2
2022-12-08T11:42:17.762Z,3.2
2022-12-08T11:43:17.766Z,3.2
2022-12-08T11:44:17.784Z,3.1
2022-12-08T11:45:17.761Z,3.1
2022-12-08T11:46:17.841Z,3.1
2022-12-08T11:47:17.764Z,3.1
2022-12-08T11:48:17.763Z,3.1
2022-12-08T11:49:17.763Z,3.1
2022-12-08T11:50:18.231Z,3.1
2022-12-08T11:51:17.777Z,3.1
2022-12-08T11:52:17.760Z,3.1
2022-12-08T11:53:17.766Z,3
2022-12-08T11:54:17.793Z,3
2022-12-08T11:55:17.759Z,3
2022-12-08T11:56:17.759Z,3
2022-12-08T11:57:17.759Z,3
2022-12-08T11:58:17.792Z,3
2022-12-08T11:59:17.780Z,3
2022-12-08T12:00:17.780Z,3
2022-12-08T12:01:17.767Z,3
2022-12-08T12:02:17.793Z,3
2022-12-08T12:03:17.788Z,2.9
2022-12-08T12:04:17.772Z,3
2022-12-08T12:05:27.989Z,3
2022-12-08T12:06:30.708Z,2.9
2022-12-08T12:07:20.513Z,2.9
2022-12-08T12:08:17.807Z,2.9
2022-12-08T12:09:17.762Z,2.9
2022-12-08T12:10:17.777Z,2.9
2022-12-08T12:11:17.767Z,2.9
2022-12-08T12:12:17.764Z,2.9
2022-12-08T12:13:17.765Z,2.9
2022-12-08T12:14:17.759Z,2.9
2022-12-08T12:15:17.778Z,2.9
2022-12-08T12:16:17.839Z,2.9
2022-12-08T12:17:17.767Z,2.9
2022-12-08T12:18:17.761Z,2.9
2022-12-08T12:19:17.761Z,2.9
2022-12-08T12:20:17.890Z,2.9
2022-12-08T12:21:17.760Z,2.9
2022-12-08T12:22:17.765Z,2.9
2022-12-08T12:23:17.759Z,2.9
2022-12-08T12:24:20.912Z,2.8
2022-12-08T12:25:17.776Z,2.8
2022-12-08T12:26:17.769Z,2.8
2022-12-08T12:27:17.769Z,2.8
2022-12-08T12:28:17.764Z,2.8
2022-12-08T12:29:17.796Z,2.8
2022-12-08T12:30:17.766Z,2.8
2022-12-08T12:31:17.807Z,2.8
2022-12-08T12:32:17.769Z,2.8
2022-12-08T12:33:17.765Z,2.8
2022-12-08T12:34:17.766Z,2.8
2022-12-08T12:35:18.077Z,2.8
2022-12-08T12:36:17.758Z,2.8
2022-12-08T12:37:17.759Z,2.8
2022-12-08T12:38:17.766Z,2.8
2022-12-08T12:39:17.761Z,2.8
2022-12-08T12:40:17.770Z,2.8
2022-12-08T12:41:20.976Z,2.8
2022-12-08T12:42:17.765Z,2.8
2022-12-08T12:43:17.763Z,2.8
2022-12-08T12:44:17.783Z,2.8
2022-12-08T12:45:17.773Z,2.8
2022-12-08T12:46:17.821Z,2.8
2022-12-08T12:47:17.766Z,2.8
2022-12-08T12:48:17.963Z,2.8
2022-12-08T12:49:17.767Z,2.8
2022-12-08T12:50:17.782Z,2.8
2022-12-08T12:51:17.759Z,2.8
2022-12-08T12:52:17.766Z,2.8
2022-12-08T12:53:17.767Z,2.8
2022-12-08T12:54:17.765Z,2.7
2022-12-08T12:55:17.760Z,2.7
2022-12-08T12:56:17.766Z,2.7
2022-12-08T12:57:17.763Z,2.7
2022-12-08T12:58:17.770Z,2.7
2022-12-08T12:59:17.778Z,2.7
2022-12-08T13:00:17.766Z,2.7
2022-12-08T13:01:18.127Z,2.7
2022-12-08T13:02:17.825Z,2.7
2022-12-08T13:03:18.022Z,2.7
2022-12-08T13:04:17.785Z,2.7
2022-12-08T13:05:17.768Z,2.7
2022-12-08T13:06:17.761Z,2.7
2022-12-08T13:07:17.763Z,2.7
2022-12-08T13:08:17.816Z,2.7
2022-12-08T13:09:17.762Z,2.7
2022-12-08T13:10:17.764Z,2.7
2022-12-08T13:11:17.889Z,2.7
2022-12-08T13:12:17.759Z,2.7
2022-12-08T13:13:17.759Z,2.7
2022-12-08T13:14:17.763Z,2.7
2022-12-08T13:15:17.757Z,2.7
2022-12-08T13:16:19.498Z,2.7
2022-12-08T13:17:17.792Z,2.7
2022-12-08T13:18:17.762Z,2.7
2022-12-08T13:19:17.763Z,2.7
2022-12-08T13:20:17.762Z,2.7
2022-12-08T13:21:17.771Z,2.7
2022-12-08T13:22:17.767Z,2.7
2022-12-08T13:23:17.762Z,2.7
2022-12-08T13:24:17.766Z,2.7
2022-12-08T13:25:17.777Z,2.7
2022-12-08T13:26:17.760Z,2.7
2022-12-08T13:27:17.758Z,2.7
2022-12-08T13:28:17.764Z,2.7
2022-12-08T13:29:17.777Z,2.7
2022-12-08T13:30:17.773Z,2.7
2022-12-08T13:31:17.820Z,2.7
2022-12-08T13:32:17.783Z,2.7
2022-12-08T13:33:18.914Z,2.7
2022-12-08T13:34:17.782Z,2.7
2022-12-08T13:35:17.797Z,2.7
2022-12-08T13:36:17.763Z,2.7
2022-12-08T13:37:17.760Z,2.7
2022-12-08T13:38:17.761Z,2.7
2022-12-08T13:39:17.773Z,2.7
2022-12-08T13:40:17.765Z,2.7
2022-12-08T13:41:17.764Z,2.7
2022-12-08T13:42:17.763Z,2.7
2022-12-08T13:43:17.768Z,2.7
2022-12-08T13:45:03.902Z,2.7
2022-12-08T13:45:24.484Z,2.7
2022-12-08T13:47:33.168Z,2.7
2022-12-08T13:48:42.551Z,2.7
2022-12-08T13:50:55.553Z,2.7
2022-12-08T13:54:56.340Z,2.7
2022-12-08T13:56:37.062Z,2.7
2022-12-08T13:56:59.965Z,2.7
2022-12-08T13:57:18.057Z,2.7
2022-12-08T13:58:17.804Z,2.7
2022-12-08T13:59:17.766Z,2.7
2022-12-08T14:00:17.761Z,2.7
2022-12-08T14:01:17.781Z,2.7
2022-12-08T14:02:17.822Z,2.7
2022-12-08T14:03:17.812Z,2.7